Weather observations for the past three days for
Marshall Memorial Municipal Airport
Imperial (Metric)
Date Time (cdt) Wind (mph) Vis. (mi.) Weather Sky Cond. Temperature (ºF) Relative Humidity Wind Chill (°F) Heat Index (°F) Pressure Precipitation (in)
Air Dwpt 6 hour altimeter (in) sea level (mb) 1 hr 3 hr 6 hr
Max. Min.
03 23:35 Calm 10.00 Fair CLR 62.6 50 64% 29.77 0.0
03 23:15 Calm 10.00 Fair CLR 62.6 50 64% 29.78 0.0
03 22:55 Calm 10.00 Fair CLR 64.4 50 60% 29.78 0.0
03 22:35 Calm 10.00 Fair CLR 64.4 50 60% 29.8 0.0
03 22:15 Calm 10.00 Fair CLR 66.2 50 56% 29.8 0.0
03 21:55 Calm 10.00 Fair CLR 64.4 50 60% 29.8 0.0
03 21:35 Calm 10.00 Fair CLR 69.8 50 50% 29.8 0.0
03 21:15 Calm 10.00 Fair CLR 66.2 51.8 60% 29.8 0.0
03 20:55 Calm 10.00 Fair CLR 66.2 51.8 60% 29.79 0.0
03 20:35 Calm 10.00 Partly Cloudy SCT100 68 51.8 56% 29.79 0.0
03 20:15 NE 3 7.00 Mostly Cloudy BKN100 71.6 50 47% 29.78 0.0
03 19:55 N 3 10.00 Mostly Cloudy BKN100 71.6 50 47% 29.78 0.0
03 19:35 N 3 10.00 Partly Cloudy SCT090 73.4 51.8 47% 29.78 0.0
03 19:15 Calm 10.00 Fair CLR 77 50 39% 78 29.78 0.0
03 18:55 W 3 10.00 Fair CLR 77 51.8 42% 78 29.78 0.0
03 18:35 W 9 10.00 Fair CLR 78.8 50 37% 79 29.79 0.0
03 18:15 W 9 10.00 Fair CLR 78.8 48.2 34% 79 29.8 0.0
03 17:55 W 12 G 17 10.00 Fair CLR 78.8 50 37% 79 29.8 0.0
03 17:35 SW 12 G 17 10.00 Fair CLR 78.8 48.2 34% 79 29.8 0.0
03 17:15 W 13 10.00 Fair CLR 78.8 50 37% 79 29.8 0.0
03 16:55 SW 14 G 26 10.00 Fair CLR 78.8 48.2 34% 79 29.81 0.0
03 16:35 SW 16 G 21 10.00 Fair CLR 78.8 50 37% 79 29.81 0.0
03 16:15 W 10 G 20 10.00 Fair CLR 77 50 39% 78 29.81 0.0
03 15:55 SW 14 10.00 Fair CLR 78.8 51.8 39% 79 29.82 0.0
03 15:35 SW 9 10.00 Fair CLR 77 51.8 42% 78 29.83 0.0
03 15:15 SW 16 G 22 10.00 Fair CLR 77 50 39% 78 29.84 0.0
03 14:55 SW 15 G 22 10.00 Fair CLR 77 50 39% 78 29.85 0.0
03 14:35 SW 13 G 23 10.00 Fair CLR 75.2 50 41% 78 29.86 0.0
03 13:55 SW 14 G 20 10.00 Fair CLR 73.4 50 44% 29.88 0.0
03 13:35 SW 13 G 22 10.00 Fair CLR 73.4 50 44% 29.89 0.0
03 13:15 SW 15 G 24 10.00 Fair CLR 71.6 50 47% 29.89 0.0
03 12:55 SW 18 G 23 10.00 Fair CLR 69.8 48.2 46% 29.9 0.0
03 12:35 SW 20 G 26 10.00 Fair CLR 69.8 46.4 43% 29.89 0.0
03 12:15 SW 16 G 26 10.00 Fair CLR 69.8 48.2 46% 29.91 0.0
03 11:55 SW 14 G 20 10.00 Fair CLR 68 46.4 46% 29.92 0.0
03 11:35 SW 18 G 23 10.00 Fair CLR 68 46.4 46% 29.93 0.0
03 11:15 SW 13 G 22 10.00 Fair CLR 66.2 44.6 46% 29.94 0.0
03 10:55 SW 17 G 22 10.00 Fair CLR 64.4 44.6 49% 29.95 0.0
03 10:35 SW 14 G 23 10.00 Fair CLR 62.6 42.8 49% 29.94 0.0
03 10:15 S 22 G 28 10.00 Fair and Breezy CLR 60.8 41 48% 29.95 0.0
03 09:55 SW 20 G 26 10.00 Fair CLR 60.8 41 48% 29.97 0.0
03 09:35 SW 9 G 21 10.00 Fair CLR 59 41 51% 29.98 0.0
03 09:15 S 12 G 21 10.00 Fair CLR 57.2 39.2 51% 29.98 0.0
03 08:55 S 15 G 21 10.00 Fair CLR 55.4 39.2 55% 29.98 0.0
03 08:35 S 13 G 18 10.00 Fair CLR 53.6 39.2 58% 29.99 0.0
03 08:15 S 13 G 18 10.00 Fair CLR 51.8 39.2 62% 30 0.0
03 07:55 S 12 10.00 Fair CLR 51.8 39.2 62% 30.01 0.0
03 07:35 S 9 10.00 Fair CLR 50 37.4 62% 47 30.02 0.0
03 07:15 S 9 10.00 Fair CLR 48.2 39.2 71% 45 30 0.0
03 06:55 S 9 10.00 Fair CLR 46.4 37.4 71% 42 30.01 0.0
03 06:35 S 10 10.00 Fair CLR 46.4 37.4 71% 42 30 0.0
03 06:15 S 10 10.00 Fair CLR 44.6 37.4 76% 40 30 0.0
03 05:55 S 9 10.00 Fair CLR 44.6 37.4 76% 40 30.01 0.0
03 05:35 S 8 10.00 Fair CLR 44.6 37.4 76% 41 30 0.0
03 05:15 S 8 10.00 Fair CLR 44.6 37.4 76% 41 30.02 0.0
03 04:55 S 6 10.00 Fair CLR 44.6 37.4 76% 42 30.02 0.0
03 04:35 S 6 10.00 Fair CLR 44.6 37.4 76% 42 30.03 0.0
03 04:15 S 7 10.00 Fair CLR 44.6 37.4 76% 41 30.03 0.0
03 03:55 SW 6 10.00 Fair CLR 44.6 37.4 76% 42 30.03 0.0
03 03:35 S 6 10.00 Fair CLR 44.6 35.6 71% 42 30.03 0.0
03 03:15 S 5 10.00 Fair CLR 44.6 35.6 71% 43 30.04 0.0
03 02:55 S 7 10.00 Fair CLR 46.4 35.6 66% 43 30.04 0.0
03 02:35 S 6 10.00 Fair CLR 44.6 35.6 71% 42 30.05 0.0
03 02:15 SW 5 10.00 Fair CLR 44.6 35.6 71% 43 30.06 0.0
03 01:55 S 3 10.00 Fair CLR 44.6 35.6 71% 30.06 0.0
03 01:35 SW 5 10.00 Fair CLR 44.6 35.6 71% 43 30.07 0.0
03 01:15 S 5 10.00 Fair CLR 44.6 35.6 71% 43 30.07 0.0
03 00:55 S 5 10.00 Fair CLR 46.4 35.6 66% 45 30.08 0.0
03 00:35 S 5 10.00 Fair CLR 46.4 35.6 66% 45 30.08 0.0
03 00:15 S 5 10.00 Fair CLR 46.4 35.6 66% 45 30.09 0.0
02 23:55 Calm 10.00 Fair CLR 46.4 35.6 66% 30.09 0.0
02 23:35 S 5 10.00 Fair CLR 46.4 35.6 66% 45 30.09 0.0
02 23:15 S 5 10.00 Fair CLR 46.4 35.6 66% 45 30.1 0.0
02 22:55 Calm 10.00 Fair CLR 48.2 35.6 62% 30.1 0.0
02 22:35 Calm 10.00 Fair CLR 50 35.6 58% 30.11 0.0
02 22:15 Calm 10.00 Fair CLR 50 35.6 58% 30.1 0.0
02 21:55 Calm 10.00 Fair CLR 51.8 33.8 50% 30.1 0.0
02 21:35 Calm 10.00 Fair CLR 51.8 33.8 50% 30.1 0.0
02 21:15 Calm 10.00 Fair CLR 53.6 35.6 51% 30.1 0.0
02 20:55 Calm 10.00 Fair CLR 53.6 32 44% 30.09 0.0
02 20:35 Calm 10.00 Fair CLR 55.4 32 41% 30.09 0.0
02 20:15 Calm 10.00 Fair CLR 55.4 32 41% 30.09 0.0
02 19:55 Calm 10.00 Fair CLR 59 32 36% 30.09 0.0
02 19:35 Calm 10.00 Fair CLR 59 32 36% 30.09 0.0
02 19:15 Calm 10.00 Fair CLR 59 32 36% 30.09 0.0
02 18:55 NW 8 10.00 Fair CLR 60.8 32 34% 30.1 0.0
02 18:35 NW 6 10.00 Fair CLR 60.8 32 34% 30.09 0.0
02 18:15 W 6 10.00 Fair CLR 60.8 30.2 31% 30.1 0.0
02 17:55 W 8 10.00 Fair CLR 60.8 32 34% 30.1 0.0
02 17:35 NW 7 10.00 Fair CLR 60.8 30.2 31% 30.1 0.0
02 17:15 N 8 10.00 Fair CLR 60.8 30.2 31% 30.11 0.0
02 16:55 NW 9 10.00 Fair CLR 60.8 30.2 31% 30.11 0.0
02 16:35 W 6 10.00 Fair CLR 60.8 32 34% 30.11 0.0
02 16:15 NW 9 10.00 Fair CLR 60.8 30.2 31% 30.12 0.0
02 15:55 NW 7 10.00 Fair CLR 60.8 32 34% 30.12 0.0
02 15:35 W 6 10.00 Fair CLR 60.8 32 34% 30.13 0.0
02 15:15 NW 7 10.00 Fair CLR 59 32 36% 30.13 0.0
02 14:55 W 7 G 18 10.00 Fair CLR 59 32 36% 30.14 0.0
02 14:35 W 9 G 17 10.00 Partly Cloudy SCT075 59 32 36% 30.14 0.0
02 14:15 W 7 10.00 Fair CLR 59 32 36% 30.15 0.0
02 13:55 W 6 10.00 Fair CLR 59 30.2 34% 30.15 0.0
02 13:35 N 10 G 18 10.00 Fair CLR 59 32 36% 30.16 0.0
02 13:15 NW 12 10.00 Partly Cloudy SCT070 59 32 36% 30.16 0.0
02 12:55 N 3 10.00 Fair CLR 59 32 36% 30.17 0.0
02 12:35 NW 6 10.00 Partly Cloudy SCT070 55.4 30.2 38% 30.17 0.0
02 12:15 NW 8 10.00 Fair CLR 55.4 32 41% 30.17 0.0
02 11:55 NE 6 10.00 Fair CLR 55.4 32 41% 30.17 0.0
02 11:35 N 7 10.00 Fair CLR 55.4 32 41% 30.18 0.0
02 11:15 NW 10 10.00 Fair CLR 55.4 32 41% 30.18 0.0
02 10:55 N 10 G 17 10.00 Partly Cloudy SCT060 55.4 32 41% 30.18 0.0
02 10:35 NW 9 10.00 Fair CLR 55.4 32 41% 30.18 0.0
02 10:15 NW 8 10.00 Fair CLR 53.6 33.8 47% 30.18 0.0
02 09:55 NW 8 10.00 Fair CLR 53.6 37.4 54% 30.18 0.0
02 09:35 NW 5 10.00 Fair CLR 51.8 37.4 58% 30.17 0.0
02 09:15 N 7 10.00 Fair CLR 50 37.4 62% 48 30.17 0.0
02 08:55 NW 6 10.00 Fair CLR 48.2 37.4 66% 46 30.17 0.0
02 08:35 N 9 10.00 Fair CLR 46.4 37.4 71% 42 30.17 0.0
02 08:15 NW 8 10.00 Fair CLR 46.4 37.4 71% 43 30.16 0.0
02 07:55 NW 7 10.00 Fair CLR 44.6 37.4 76% 41 30.16 0.0
02 07:35 NW 8 10.00 Partly Cloudy SCT075 42.8 39.2 87% 39 30.16 0.0
02 07:15 NW 6 10.00 Partly Cloudy SCT075 42.8 37.4 81% 40 30.15 0.0
02 06:55 N 5 10.00 Partly Cloudy SCT075 41 37.4 87% 38 30.14 0.0
02 06:35 NW 6 10.00 Mostly Cloudy BKN075 41 37.4 87% 38 30.13 0.0
02 06:15 NW 3 10.00 Mostly Cloudy BKN075 39.2 37.4 93% 30.13 0.0
02 05:55 Calm 10.00 Mostly Cloudy BKN075 41 37.4 87% 30.12 0.0
02 05:35 NW 3 10.00 Mostly Cloudy BKN075 39.2 37.4 93% 30.12 0.0
02 05:15 Calm 10.00 Mostly Cloudy BKN065 41 37.4 87% 30.12 0.0
02 04:55 Calm 10.00 Mostly Cloudy BKN065 39.2 37.4 93% 30.12 0.0
02 04:35 Calm 10.00 Partly Cloudy SCT065 39.2 37.4 93% 30.11 0.0
02 04:15 Calm 10.00 Fair CLR 41 37.4 87% 30.11 0.0
02 03:55 Calm 10.00 Fair CLR 41 37.4 87% 30.11 0.0
02 03:35 Calm 10.00 Fair CLR 41 37.4 87% 30.1 0.0
02 03:15 Calm 10.00 Fair CLR 42.8 37.4 81% 30.1 0.0
02 02:55 Calm 10.00 Fair CLR 42.8 37.4 81% 30.09 0.0
02 02:35 Calm 10.00 Fair CLR 42.8 37.4 81% 30.09 0.0
02 02:15 Calm 10.00 Fair CLR 42.8 37.4 81% 30.09 0.0
02 01:55 N 3 10.00 Fair CLR 42.8 35.6 76% 30.09 0.0
02 01:35 N 6 10.00 Fair CLR 44.6 35.6 71% 42 30.09 0.0
02 01:15 N 6 10.00 Fair CLR 46.4 35.6 66% 44 30.09 0.0
02 00:55 N 6 10.00 Fair CLR 46.4 35.6 66% 44 30.09 0.0
02 00:35 N 7 10.00 Fair CLR 46.4 35.6 66% 43 30.09 0.0
02 00:15 N 7 10.00 Fair CLR 46.4 35.6 66% 43 30.09 0.0
01 23:55 NE 6 10.00 Fair CLR 48.2 33.8 58% 46 30.09 0.0
01 23:35 N 6 10.00 Fair CLR 46.4 33.8 62% 44 30.09 0.0
01 23:15 N 5 10.00 Fair CLR 48.2 33.8 58% 47 30.09 0.0
01 22:55 N 6 10.00 Fair CLR 48.2 33.8 58% 46 30.09 0.0
01 22:35 N 6 10.00 Fair CLR 50 33.8 54% 48 30.09 0.0
01 22:15 NW 7 10.00 Fair CLR 50 33.8 54% 48 30.09 0.0
01 21:55 NW 3 10.00 Fair CLR 51.8 32 47% 30.08 0.0
01 21:35 Calm 10.00 Fair CLR 51.8 32 47% 30.07 0.0
01 21:15 NW 5 10.00 Fair CLR 51.8 32 47% 30.06 0.0
01 20:55 NW 3 10.00 Fair CLR 53.6 32 44% 30.05 0.0
01 20:35 NW 7 10.00 Fair CLR 53.6 32 44% 30.04 0.0
01 20:15 NW 7 10.00 Fair CLR 55.4 32 41% 30.03 0.0
01 19:55 NW 8 10.00 Fair CLR 57.2 32 39% 30.02 0.0
01 19:35 NW 8 10.00 Fair CLR 59 32 36% 30.01 0.0
01 19:15 NW 10 10.00 Fair CLR 60.8 30.2 31% 30 0.0
01 18:55 NW 13 10.00 Partly Cloudy SCT090 60.8 32 34% 30 0.0
01 18:35 W 9 10.00 Partly Cloudy SCT080 SCT100 60.8 33.8 36% 30 0.0
01 18:15 NW 9 10.00 Mostly Cloudy BKN080 BKN100 BKN110 60.8 35.6 39% 30 0.0
01 17:55 W 8 10.00 Overcast SCT080 BKN090 OVC110 60.8 35.6 39% 30 0.0
01 17:35 W 14 G 18 10.00 Mostly Cloudy SCT075 SCT090 BKN110 60.8 33.8 36% 30.01 0.0
01 17:15 W 12 G 17 10.00 Partly Cloudy SCT070 SCT090 62.6 35.6 37% 30.01 0.0
01 16:55 W 12 10.00 Partly Cloudy SCT080 SCT110 62.6 33.8 34% 30.02 0.0
01 16:35 W 12 G 21 10.00 Overcast OVC080 60.8 33.8 36% 30.03 0.0
01 16:15 W 10 10.00 Mostly Cloudy BKN080 BKN100 60.8 33.8 36% 30.03 0.0
01 15:55 W 9 10.00 Mostly Cloudy SCT085 BKN100 BKN120 60.8 33.8 36% 30.04 0.0
01 15:35 W 6 10.00 Mostly Cloudy SCT095 BKN110 60.8 33.8 36% 30.04 0.0
01 15:15 W 10 G 18 10.00 Mostly Cloudy SCT090 BKN110 60.8 33.8 36% 30.06 0.0
01 14:55 W 8 G 17 10.00 Partly Cloudy SCT090 SCT110 62.6 33.8 34% 30.06 0.0
01 14:35 W 12 G 21 10.00 Mostly Cloudy BKN090 62.6 33.8 34% 30.07 0.0
01 14:15 W 12 G 17 10.00 Partly Cloudy SCT090 60.8 35.6 39% 30.07 0.0
01 13:55 SW 7 10.00 Mostly Cloudy BKN090 60.8 35.6 39% 30.08 0.0
01 13:35 W 10 G 16 10.00 Partly Cloudy SCT070 SCT080 60.8 33.8 36% 30.08 0.0
01 12:55 W 8 10.00 Fair CLR 59 33.8 39% 30.09 0.0
01 12:35 W 8 10.00 Fair CLR 59 32 36% 30.1 0.0
01 12:15 W 9 10.00 Fair CLR 59 33.8 39% 30.1 0.0
01 11:55 SW 7 10.00 Fair CLR 57.2 33.8 41% 30.1 0.0
01 11:35 SW 5 10.00 Fair CLR 55.4 32 41% 30.1 0.0
01 11:15 W 6 10.00 Fair CLR 55.4 32 41% 30.11 0.0
01 10:55 SW 6 10.00 Fair CLR 53.6 33.8 47% 30.11 0.0
01 10:35 SW 8 10.00 Fair CLR 53.6 33.8 47% 30.11 0.0
01 10:15 SW 5 10.00 Fair CLR 53.6 33.8 47% 30.11 0.0
01 09:55 S 7 10.00 Fair CLR 51.8 35.6 54% 30.11 0.0
01 09:35 SW 5 10.00 Fair CLR 51.8 35.6 54% 30.11 0.0
01 09:15 SW 3 10.00 Fair CLR 50 41 71% 30.11 0.0
01 08:55 Calm 10.00 Fair CLR 48.2 37.4 66% 30.11 0.0
01 08:35 Calm 10.00 Fair CLR 46.4 41 82% 30.11 0.0
01 08:15 Calm 10.00 Fair CLR 44.6 39.2 81% 30.11 0.0
01 07:55 Calm 10.00 Fair CLR 42.8 37.4 81% 30.11 0.0
01 07:35 Calm 10.00 Fair CLR 41 37.4 87% 30.12 0.0
01 07:15 Calm 10.00 Fair CLR 39.2 37.4 93% 30.11 0.0
01 06:55 Calm 10.00 Fair CLR 37.4 35.6 93% 30.1 0.0
01 06:35 Calm 10.00 Fair CLR 35.6 35.6 100% 30.1 0.0
01 06:15 Calm 10.00 Fair CLR 35.6 35.6 100% 30.09 0.0
01 05:55 Calm 10.00 Fair CLR 37.4 35.6 93% 30.09 0.0
01 05:35 Calm 10.00 Fair CLR 37.4 35.6 93% 30.09 0.0
01 05:15 Calm 10.00 Fair CLR 35.6 35.6 100% 30.09 0.0
01 04:55 Calm 10.00 Fair CLR 39.2 35.6 87% 30.09 0.0
01 04:35 Calm 10.00 Fair CLR 39.2 35.6 87% 30.09 0.0
01 04:15 Calm 10.00 Fair CLR 39.2 35.6 87% 30.1 0.0
01 03:55 NW 3 10.00 Fair CLR 39.2 35.6 87% 30.1 0.0
01 03:35 NW 3 10.00 Fair CLR 39.2 35.6 87% 30.1 0.0
01 03:15 NW 3 10.00 Fair CLR 41 35.6 81% 30.1 0.0
01 02:55 NW 3 10.00 Fair CLR 41 35.6 81% 30.1 0.0
01 02:35 NW 5 10.00 Fair CLR 41 37.4 87% 38 30.1 0.0
01 02:15 Calm 10.00 Partly Cloudy SCT065 41 37.4 87% 30.11 0.0
01 01:55 NW 3 10.00 Partly Cloudy SCT065 41 37.4 87% 30.11 0.0
01 01:35 NW 3 10.00 Fair CLR 42.8 37.4 81% 30.11 0.0
01 01:15 NW 3 10.00 Fair CLR 42.8 37.4 81% 30.11 0.0
01 00:55 Calm 10.00 Fair CLR 42.8 37.4 81% 30.11 0.0
01 00:35 Calm 10.00 Fair CLR 44.6 37.4 76% 30.1 0.0
01 00:15 Calm 10.00 Fair CLR 46.4 37.4 71% 30.1 0.0
30 23:55 Calm 10.00 Fair CLR 46.4 37.4 71% 30.1 0.0
Date Time (cdt) Wind (mph) Vis. (mi.) Weather Sky Cond. Air Dwpt Max. Min. Relative Humidity Wind Chill (°F) Heat Index (°F) altimeter (in) sea level (mb) 1 hr 3 hr 6 hr
6 hour
Temperature (ºF) Pressure Precipitation (in)